createdAt,value
2023-05-07T00:00:52.007Z,69.56
2023-05-07T00:03:18.542Z,69.46
2023-05-07T00:05:44.885Z,69.38
2023-05-07T00:08:11.330Z,69.42
2023-05-07T00:10:37.917Z,69.25
2023-05-07T00:13:04.293Z,69.44
2023-05-07T00:15:30.691Z,69.65
2023-05-07T00:17:57.166Z,69.74
2023-05-07T00:20:23.532Z,70.09
2023-05-07T00:22:50.236Z,70.26
2023-05-07T00:25:16.630Z,70.33
2023-05-07T00:27:43.011Z,70.55
2023-05-07T00:30:09.743Z,70.73
2023-05-07T00:32:36.011Z,70.73
2023-05-07T00:35:02.401Z,70.69
2023-05-07T00:37:28.849Z,70.43
2023-05-07T00:39:55.577Z,70.50
2023-05-07T00:42:22.126Z,70.39
2023-05-07T00:44:48.614Z,70.56
2023-05-07T00:47:15.165Z,70.62
2023-05-07T00:49:41.619Z,70.63
2023-05-07T00:52:08.002Z,70.65
2023-05-07T00:54:34.359Z,70.54
2023-05-07T00:57:01.026Z,70.50
2023-05-07T00:59:27.562Z,70.41
2023-05-07T01:01:53.995Z,70.41
2023-05-07T01:04:20.513Z,70.54
2023-05-07T01:06:46.852Z,70.63
2023-05-07T01:09:13.362Z,70.40
2023-05-07T01:11:39.822Z,70.28
2023-05-07T01:14:06.314Z,70.31
2023-05-07T01:16:32.692Z,70.26
2023-05-07T01:18:59.095Z,70.13
2023-05-07T01:21:25.513Z,69.40
2023-05-07T01:23:51.958Z,68.75
2023-05-07T01:26:18.489Z,68.90
2023-05-07T01:28:44.832Z,69.15
2023-05-07T01:31:11.312Z,69.43
2023-05-07T01:33:37.775Z,69.76
2023-05-07T01:36:04.237Z,70.09
2023-05-07T01:38:30.769Z,70.03
2023-05-07T01:40:57.138Z,69.91
2023-05-07T01:43:23.529Z,70.00
2023-05-07T01:45:50.016Z,69.61
2023-05-07T01:48:16.515Z,69.28
2023-05-07T01:50:42.852Z,69.40
2023-05-07T01:53:09.370Z,69.67
2023-05-07T01:55:35.909Z,69.73
2023-05-07T01:58:02.317Z,69.57
2023-05-07T02:00:28.797Z,69.78
2023-05-07T02:02:55.246Z,69.54
2023-05-07T02:05:21.828Z,69.41
2023-05-07T02:07:48.213Z,69.13
2023-05-07T02:10:14.720Z,69.72
2023-05-07T02:12:41.109Z,69.95
2023-05-07T02:15:08.721Z,69.87
2023-05-07T02:17:35.167Z,70.05
2023-05-07T02:20:01.574Z,70.00
2023-05-07T02:22:27.961Z,69.79
2023-05-07T02:24:54.393Z,70.33
2023-05-07T02:27:20.849Z,70.51
2023-05-07T02:29:47.323Z,70.22
2023-05-07T02:32:13.794Z,70.71
2023-05-07T02:34:40.233Z,70.43
2023-05-07T02:37:06.866Z,70.24
2023-05-07T02:39:33.289Z,70.39
2023-05-07T02:41:59.677Z,70.45
2023-05-07T02:44:26.315Z,70.72
2023-05-07T02:46:52.713Z,70.59
2023-05-07T02:49:19.178Z,70.97
2023-05-07T02:51:45.724Z,71.26
2023-05-07T02:54:12.165Z,71.31
2023-05-07T02:56:38.570Z,71.69
2023-05-07T02:59:05.018Z,71.91
2023-05-07T03:01:31.523Z,72.11
2023-05-07T03:03:57.989Z,72.54
2023-05-07T03:06:24.362Z,72.71
2023-05-07T03:08:50.790Z,72.83
2023-05-07T03:11:17.314Z,73.02
2023-05-07T03:13:43.726Z,73.32
2023-05-07T03:16:10.220Z,74.04
2023-05-07T03:18:36.762Z,74.05
2023-05-07T03:21:03.208Z,74.27
2023-05-07T03:23:29.694Z,74.31
2023-05-07T03:25:56.112Z,74.74
2023-05-07T03:28:22.671Z,75.61
2023-05-07T03:30:49.120Z,76.22
2023-05-07T03:33:15.554Z,76.37
2023-05-07T03:35:42.002Z,76.28
2023-05-07T03:38:08.432Z,76.35
2023-05-07T03:40:34.881Z,76.91
2023-05-07T03:43:01.450Z,77.23
2023-05-07T03:45:27.856Z,77.70
2023-05-07T03:47:54.336Z,78.09
2023-05-07T03:50:20.797Z,78.39
2023-05-07T03:52:47.170Z,78.47
2023-05-07T03:55:13.711Z,78.69
2023-05-07T03:57:40.143Z,78.82
2023-05-07T04:00:06.494Z,78.85
2023-05-07T04:02:33.228Z,78.76
2023-05-07T04:04:59.464Z,78.68
2023-05-07T04:07:26.008Z,78.74
2023-05-07T04:09:52.782Z,78.72
2023-05-07T04:12:19.169Z,78.76
2023-05-07T04:14:45.814Z,78.84
2023-05-07T04:17:12.204Z,78.94
2023-05-07T04:19:38.698Z,79.21
2023-05-07T04:22:05.133Z,79.21
2023-05-07T04:24:31.595Z,79.06
2023-05-07T04:26:58.001Z,78.66
2023-05-07T04:29:24.511Z,78.42
2023-05-07T04:31:50.979Z,78.31
2023-05-07T04:34:17.420Z,78.21
2023-05-07T04:36:43.889Z,78.25
2023-05-07T04:39:10.327Z,78.28
2023-05-07T04:41:36.782Z,78.22
2023-05-07T04:44:03.269Z,77.99
2023-05-07T04:46:29.712Z,77.84
2023-05-07T04:48:56.143Z,77.70
2023-05-07T04:51:22.640Z,77.42
2023-05-07T04:53:49.025Z,77.38
2023-05-07T04:56:15.466Z,77.20
2023-05-07T04:58:42.122Z,77.19
2023-05-07T05:01:08.846Z,77.05
2023-05-07T05:03:35.299Z,76.81
2023-05-07T05:06:01.670Z,76.66
2023-05-07T05:08:28.076Z,76.41
2023-05-07T05:10:54.612Z,76.16
2023-05-07T05:13:21.150Z,75.79
2023-05-07T05:15:47.465Z,75.27
2023-05-07T05:18:13.903Z,74.70
2023-05-07T05:20:40.422Z,74.39
2023-05-07T05:23:06.790Z,73.60
2023-05-07T05:25:33.277Z,72.82
2023-05-07T05:27:59.797Z,72.35
2023-05-07T05:30:26.294Z,71.74
2023-05-07T05:32:52.893Z,71.44
2023-05-07T05:35:19.349Z,71.05
2023-05-07T05:37:45.672Z,70.70
2023-05-07T05:40:14.179Z,70.33
2023-05-07T05:42:39.036Z,70.04
2023-05-07T05:45:05.748Z,69.45
2023-05-07T05:47:32.211Z,68.88
2023-05-07T05:49:58.650Z,68.47
2023-05-07T05:52:25.013Z,67.64
2023-05-07T05:54:51.435Z,67.63
2023-05-07T05:57:18.055Z,68.56
2023-05-07T05:59:44.712Z,68.10
2023-05-07T06:02:11.878Z,66.84
2023-05-07T06:04:38.421Z,66.91
2023-05-07T06:07:07.217Z,66.28
2023-05-07T06:09:35.777Z,65.82
2023-05-07T06:12:02.234Z,65.42
2023-05-07T06:14:28.654Z,64.99
2023-05-07T06:16:56.381Z,64.62
2023-05-07T06:19:23.944Z,64.34
2023-05-07T06:21:50.654Z,63.93
2023-05-07T06:24:17.581Z,62.95
2023-05-07T06:26:44.407Z,62.81
2023-05-07T06:29:11.289Z,62.72
2023-05-07T06:31:40.181Z,62.73
2023-05-07T06:34:06.875Z,62.00
2023-05-07T06:36:35.283Z,61.68
2023-05-07T06:38:59.746Z,61.40
2023-05-07T06:41:26.178Z,60.94
2023-05-07T06:44:02.556Z,60.71
2023-05-07T06:46:30.248Z,60.21
2023-05-07T06:48:56.816Z,59.68
2023-05-07T06:51:23.312Z,59.99
2023-05-07T06:53:49.961Z,59.70
2023-05-07T06:56:17.385Z,59.27
2023-05-07T06:58:43.718Z,58.89
2023-05-07T07:01:10.284Z,58.31
2023-05-07T07:03:36.671Z,58.11
2023-05-07T07:06:03.227Z,60.07
2023-05-07T07:08:29.611Z,59.49
2023-05-07T07:10:56.068Z,58.56
2023-05-07T07:13:22.856Z,57.64
2023-05-07T07:15:49.463Z,57.00
2023-05-07T07:18:16.008Z,56.04
2023-05-07T07:20:42.451Z,54.62
2023-05-07T07:23:09.130Z,54.54
2023-05-07T07:25:35.640Z,54.15
2023-05-07T07:28:02.089Z,54.26
2023-05-07T07:30:28.492Z,53.73
2023-05-07T07:32:55.140Z,53.29
2023-05-07T07:35:21.535Z,52.64
2023-05-07T07:37:47.946Z,53.26
2023-05-07T07:40:14.508Z,53.34
2023-05-07T07:42:40.827Z,53.11
2023-05-07T07:45:07.206Z,54.05
2023-05-07T07:47:33.636Z,54.23
2023-05-07T07:50:00.049Z,52.80
2023-05-07T07:52:26.417Z,53.26
2023-05-07T07:54:52.821Z,53.18
2023-05-07T07:57:19.278Z,53.31
2023-05-07T07:59:45.689Z,53.03
2023-05-07T08:02:12.127Z,53.32
2023-05-07T08:04:39.148Z,52.88
2023-05-07T08:07:05.308Z,51.87
2023-05-07T08:09:31.757Z,52.10
2023-05-07T08:11:58.147Z,52.49
2023-05-07T08:14:24.543Z,52.46
2023-05-07T08:16:51.012Z,51.58
2023-05-07T08:19:17.356Z,49.83
2023-05-07T08:21:43.770Z,50.05
2023-05-07T08:24:10.227Z,50.17
2023-05-07T08:26:36.615Z,51.09
2023-05-07T08:29:03.035Z,51.12
2023-05-07T08:31:29.499Z,49.03
2023-05-07T08:33:55.833Z,48.51
2023-05-07T08:36:22.238Z,48.25
2023-05-07T08:38:48.653Z,48.36
2023-05-07T08:41:15.011Z,48.58
2023-05-07T08:43:41.441Z,48.12
2023-05-07T08:46:10.096Z,49.23
2023-05-07T08:48:34.227Z,48.06
2023-05-07T08:51:00.591Z,47.77
2023-05-07T08:53:27.004Z,47.90
2023-05-07T08:55:53.403Z,48.15
2023-05-07T08:58:20.034Z,47.11
2023-05-07T09:00:46.500Z,47.74
2023-05-07T09:03:12.926Z,47.91
2023-05-07T09:05:39.249Z,47.66
2023-05-07T09:08:05.664Z,48.00
2023-05-07T09:10:32.107Z,47.81
2023-05-07T09:12:58.512Z,46.37
2023-05-07T09:15:24.853Z,44.30
2023-05-07T09:17:51.376Z,45.31
2023-05-07T09:20:17.709Z,45.84
2023-05-07T09:22:44.088Z,45.92
2023-05-07T09:25:11.098Z,46.51
2023-05-07T09:27:37.392Z,45.82
2023-05-07T09:30:03.801Z,45.45
2023-05-07T09:32:30.205Z,45.29
2023-05-07T09:34:56.630Z,44.55
2023-05-07T09:37:22.985Z,44.33
2023-05-07T09:39:50.555Z,42.72
2023-05-07T09:42:16.936Z,42.90
2023-05-07T09:44:43.308Z,42.08
2023-05-07T09:47:09.796Z,42.59
2023-05-07T09:49:36.202Z,43.22
2023-05-07T09:52:02.618Z,42.96
2023-05-07T09:54:29.034Z,41.64
2023-05-07T09:56:57.928Z,41.60
2023-05-07T09:59:24.370Z,40.98
2023-05-07T10:01:50.738Z,40.82
2023-05-07T10:04:17.435Z,40.61
2023-05-07T10:06:43.846Z,38.84
2023-05-07T10:09:10.225Z,38.82
2023-05-07T10:11:36.675Z,37.82
2023-05-07T10:14:04.932Z,38.29
2023-05-07T10:16:29.569Z,38.85
2023-05-07T10:18:56.031Z,37.94
2023-05-07T10:21:22.398Z,38.20
2023-05-07T10:23:48.805Z,38.81
2023-05-07T10:26:15.205Z,37.37
2023-05-07T10:28:41.582Z,37.69
2023-05-07T10:31:08.071Z,37.55
2023-05-07T10:33:34.373Z,37.99
2023-05-07T10:36:00.899Z,37.56
2023-05-07T10:38:27.350Z,37.21
2023-05-07T10:40:53.757Z,37.75
2023-05-07T10:43:20.175Z,38.89
2023-05-07T10:45:46.831Z,38.27
2023-05-07T10:48:28.884Z,38.17
2023-05-07T10:50:40.721Z,38.33
2023-05-07T10:53:07.360Z,37.68
2023-05-07T10:55:33.798Z,37.92
2023-05-07T10:58:00.168Z,38.15
2023-05-07T11:00:38.875Z,38.23
2023-05-07T11:02:52.977Z,36.54
2023-05-07T11:05:19.350Z,37.02
2023-05-07T11:07:45.755Z,37.26
2023-05-07T11:10:12.184Z,37.23
2023-05-07T11:12:38.745Z,37.11
2023-05-07T11:15:04.998Z,37.73
2023-05-07T11:17:31.425Z,37.69
2023-05-07T11:19:57.789Z,36.18
2023-05-07T11:22:24.197Z,36.68
2023-05-07T11:24:50.596Z,35.82
2023-05-07T11:27:17.014Z,36.00
2023-05-07T11:29:43.425Z,35.80
2023-05-07T11:32:10.268Z,35.81
2023-05-07T11:34:36.522Z,35.45
2023-05-07T11:37:02.888Z,35.18
2023-05-07T11:39:29.300Z,35.28
2023-05-07T11:41:55.686Z,34.71
2023-05-07T11:44:22.267Z,35.04
2023-05-07T11:46:48.699Z,34.85
2023-05-07T11:49:15.094Z,34.48
2023-05-07T11:51:41.523Z,34.76
2023-05-07T11:54:08.106Z,34.25
2023-05-07T11:56:34.533Z,33.76
2023-05-07T11:59:00.892Z,33.11
2023-05-07T12:01:27.322Z,33.27
2023-05-07T12:03:53.870Z,33.50
2023-05-07T12:06:20.214Z,32.70
2023-05-07T12:08:48.195Z,32.65
2023-05-07T12:11:13.234Z,34.01
2023-05-07T12:13:39.617Z,33.01
2023-05-07T12:16:06.868Z,32.94
2023-05-07T12:18:33.223Z,34.43
2023-05-07T12:20:59.602Z,34.26
2023-05-07T12:23:26.044Z,34.46
2023-05-07T12:25:52.512Z,34.26
2023-05-07T12:28:18.835Z,34.34
2023-05-07T12:30:45.329Z,33.17
2023-05-07T12:33:11.673Z,34.11
2023-05-07T12:35:38.101Z,33.17
2023-05-07T12:38:04.538Z,33.77
2023-05-07T12:40:30.928Z,34.33
2023-05-07T12:42:58.531Z,34.00
2023-05-07T12:45:23.772Z,33.39
2023-05-07T12:47:50.219Z,33.78
2023-05-07T12:50:16.641Z,34.39
2023-05-07T12:52:43.016Z,33.92
2023-05-07T12:55:09.693Z,33.81
2023-05-07T12:57:35.849Z,33.83
2023-05-07T13:00:03.356Z,34.26
2023-05-07T13:02:29.829Z,33.95
2023-05-07T13:04:56.144Z,32.81
2023-05-07T13:07:22.532Z,32.49
2023-05-07T13:09:48.961Z,32.99
2023-05-07T13:12:15.563Z,34.06
2023-05-07T13:14:41.937Z,34.25
2023-05-07T13:17:08.488Z,33.57
2023-05-07T13:19:34.903Z,33.60
2023-05-07T13:22:01.287Z,34.53
2023-05-07T13:24:27.661Z,34.76
2023-05-07T13:26:54.035Z,34.85
2023-05-07T13:29:20.681Z,34.13
2023-05-07T13:31:48.393Z,34.72
2023-05-07T13:34:13.531Z,33.67
2023-05-07T13:36:40.218Z,33.70
2023-05-07T13:39:06.651Z,34.08
2023-05-07T13:41:33.080Z,34.13
2023-05-07T13:43:59.447Z,35.73
2023-05-07T13:46:25.962Z,35.68
2023-05-07T13:48:52.310Z,35.88
2023-05-07T13:51:18.694Z,36.61
2023-05-07T13:53:45.200Z,36.96
2023-05-07T13:56:11.644Z,37.15
2023-05-07T13:58:52.115Z,37.24
2023-05-07T14:01:05.618Z,37.39
2023-05-07T14:03:32.087Z,37.87
2023-05-07T14:06:00.541Z,37.60
2023-05-07T14:08:26.946Z,37.96
2023-05-07T14:10:57.282Z,37.44
2023-05-07T14:13:23.745Z,37.70
2023-05-07T14:15:52.433Z,38.71
2023-05-07T14:18:18.818Z,38.60
2023-05-07T14:20:45.532Z,38.28
2023-05-07T14:23:12.214Z,37.93
2023-05-07T14:25:38.871Z,37.66
2023-05-07T14:28:06.025Z,37.72
2023-05-07T14:30:31.914Z,38.19
2023-05-07T14:33:00.594Z,39.22
2023-05-07T14:35:28.043Z,37.94
2023-05-07T14:37:54.519Z,37.83
2023-05-07T14:40:20.925Z,37.85
2023-05-07T14:42:49.740Z,38.65
2023-05-07T14:45:16.146Z,38.64
2023-05-07T14:47:42.629Z,38.95
2023-05-07T14:50:09.086Z,38.83
2023-05-07T14:52:35.505Z,39.16
2023-05-07T14:55:01.913Z,39.33
2023-05-07T14:57:32.662Z,38.14
2023-05-07T14:59:54.800Z,39.22
2023-05-07T15:02:21.560Z,39.06
2023-05-07T15:04:47.622Z,37.93
2023-05-07T15:07:14.000Z,38.34
2023-05-07T15:09:40.600Z,38.64
2023-05-07T15:12:06.933Z,39.09
2023-05-07T15:14:33.377Z,39.11
2023-05-07T15:16:59.771Z,40.35
2023-05-07T15:19:26.140Z,39.97
2023-05-07T15:21:52.608Z,39.97
2023-05-07T15:24:18.956Z,40.33
2023-05-07T15:26:46.518Z,40.01
2023-05-07T15:29:12.930Z,40.28
2023-05-07T15:31:39.367Z,39.48
2023-05-07T15:34:06.090Z,40.54
2023-05-07T15:36:32.501Z,41.02
2023-05-07T15:38:58.870Z,40.50
2023-05-07T15:41:25.281Z,41.89
2023-05-07T15:43:51.703Z,41.07
2023-05-07T15:46:18.407Z,40.22
2023-05-07T15:48:44.618Z,40.77
2023-05-07T15:51:11.000Z,41.20
2023-05-07T15:53:37.378Z,41.18
2023-05-07T15:56:03.792Z,41.19
2023-05-07T15:58:30.287Z,41.23
2023-05-07T16:00:56.698Z,40.34
2023-05-07T16:03:23.161Z,41.52
2023-05-07T16:05:49.436Z,40.67
2023-05-07T16:08:15.872Z,41.54
2023-05-07T16:10:42.291Z,41.35
2023-05-07T16:13:08.744Z,41.36
2023-05-07T16:15:35.087Z,41.48
2023-05-07T16:18:01.560Z,41.41
2023-05-07T16:20:27.912Z,42.29
2023-05-07T16:22:54.325Z,42.34
2023-05-07T16:25:21.770Z,43.20
2023-05-07T16:27:48.382Z,43.29
2023-05-07T16:30:14.801Z,43.38
2023-05-07T16:32:41.220Z,43.79
2023-05-07T16:35:07.591Z,44.13
2023-05-07T16:37:33.984Z,44.53
2023-05-07T16:40:00.390Z,44.67
2023-05-07T16:42:26.820Z,45.20
2023-05-07T16:44:53.241Z,44.73
2023-05-07T16:47:19.603Z,44.93
2023-05-07T16:49:46.017Z,45.06
2023-05-07T16:52:12.452Z,44.75
2023-05-07T16:54:39.273Z,44.90
2023-05-07T16:57:05.660Z,45.62
2023-05-07T16:59:32.033Z,45.49
2023-05-07T17:01:59.203Z,45.19
2023-05-07T17:04:24.874Z,45.37
2023-05-07T17:06:51.328Z,45.63
2023-05-07T17:09:17.738Z,45.95
2023-05-07T17:11:44.095Z,45.88
2023-05-07T17:14:10.541Z,46.31
2023-05-07T17:16:37.146Z,46.44
2023-05-07T17:19:03.444Z,46.51
2023-05-07T17:21:29.859Z,46.64
2023-05-07T17:23:56.275Z,46.32
2023-05-07T17:26:25.083Z,46.71
2023-05-07T17:28:51.454Z,46.86
2023-05-07T17:31:17.882Z,47.15
2023-05-07T17:33:45.297Z,47.34
2023-05-07T17:36:11.701Z,47.90
2023-05-07T17:38:38.157Z,47.78
2023-05-07T17:41:05.803Z,47.60
2023-05-07T17:43:32.247Z,47.68
2023-05-07T17:45:58.647Z,48.48
2023-05-07T17:48:24.983Z,47.90
2023-05-07T17:50:51.688Z,47.41
2023-05-07T17:53:18.051Z,47.25
2023-05-07T17:55:44.433Z,47.46
2023-05-07T17:58:10.851Z,46.48
2023-05-07T18:00:37.370Z,47.40
2023-05-07T18:03:03.818Z,47.94
2023-05-07T18:05:30.292Z,46.84
2023-05-07T18:07:56.536Z,46.18
2023-05-07T18:10:23.007Z,46.35
2023-05-07T18:12:49.463Z,46.59
2023-05-07T18:15:15.785Z,46.48
2023-05-07T18:17:42.204Z,46.62
2023-05-07T18:20:09.940Z,46.76
2023-05-07T18:22:36.205Z,46.88
2023-05-07T18:25:02.588Z,47.59
2023-05-07T18:27:28.999Z,47.12
2023-05-07T18:29:55.488Z,47.11
2023-05-07T18:32:22.288Z,47.43
2023-05-07T18:34:48.460Z,47.50
2023-05-07T18:37:14.848Z,47.75
2023-05-07T18:39:41.238Z,48.33
2023-05-07T18:42:07.626Z,50.18
2023-05-07T18:44:34.458Z,49.37
2023-05-07T18:47:00.884Z,49.51
2023-05-07T18:49:28.559Z,50.88
2023-05-07T18:51:55.023Z,50.98
2023-05-07T18:54:21.506Z,51.07
2023-05-07T18:56:47.888Z,51.10
2023-05-07T18:59:14.292Z,51.00
2023-05-07T19:01:40.790Z,51.22
2023-05-07T19:04:07.138Z,51.46
2023-05-07T19:06:33.809Z,51.45
2023-05-07T19:08:59.915Z,51.88
2023-05-07T19:11:26.745Z,52.00
2023-05-07T19:13:53.139Z,50.67
2023-05-07T19:16:19.600Z,51.77
2023-05-07T19:18:46.191Z,51.91
2023-05-07T19:21:12.550Z,52.13
2023-05-07T19:23:39.166Z,52.20
2023-05-07T19:26:05.501Z,52.29
2023-05-07T19:28:31.904Z,51.95
2023-05-07T19:30:58.341Z,52.39
2023-05-07T19:33:24.863Z,52.32
2023-05-07T19:35:51.286Z,52.06
2023-05-07T19:38:17.784Z,52.07
2023-05-07T19:40:44.177Z,52.67
2023-05-07T19:43:10.627Z,52.64
2023-05-07T19:45:37.033Z,53.04
2023-05-07T19:48:03.579Z,52.39
2023-05-07T19:50:30.037Z,53.15
2023-05-07T19:52:56.494Z,52.75
2023-05-07T19:55:22.904Z,52.89
2023-05-07T19:57:49.330Z,52.86
2023-05-07T20:00:17.258Z,52.93
2023-05-07T20:02:43.727Z,52.98
2023-05-07T20:05:10.091Z,53.30
2023-05-07T20:07:36.432Z,52.85
2023-05-07T20:10:02.870Z,53.02
2023-05-07T20:12:29.354Z,53.39
2023-05-07T20:14:55.684Z,53.45
2023-05-07T20:17:22.167Z,53.51
2023-05-07T20:19:48.596Z,53.66
2023-05-07T20:22:15.026Z,53.76
2023-05-07T20:24:41.376Z,54.17
2023-05-07T20:27:07.766Z,54.07
2023-05-07T20:29:34.148Z,53.94
2023-05-07T20:32:00.547Z,53.92
2023-05-07T20:34:26.931Z,54.16
2023-05-07T20:36:53.302Z,53.82
2023-05-07T20:39:19.719Z,53.79
2023-05-07T20:41:46.103Z,54.21
2023-05-07T20:44:12.512Z,54.26
2023-05-07T20:46:38.939Z,54.57
2023-05-07T20:49:05.346Z,54.64
2023-05-07T20:51:31.993Z,54.79
2023-05-07T20:53:58.366Z,54.37
2023-05-07T20:56:24.841Z,54.32
2023-05-07T20:58:51.261Z,54.41
2023-05-07T21:01:17.847Z,54.10
2023-05-07T21:03:44.181Z,54.11
2023-05-07T21:06:10.627Z,54.94
2023-05-07T21:08:37.032Z,55.01
2023-05-07T21:11:03.490Z,54.81
2023-05-07T21:13:29.926Z,54.55
2023-05-07T21:15:56.426Z,54.66
2023-05-07T21:18:22.957Z,54.07
2023-05-07T21:20:49.379Z,54.36
2023-05-07T21:23:16.009Z,54.54
2023-05-07T21:25:42.507Z,54.79
2023-05-07T21:28:08.983Z,54.32
2023-05-07T21:30:35.344Z,54.38
2023-05-07T21:33:01.753Z,54.41
2023-05-07T21:35:28.145Z,54.28
2023-05-07T21:37:54.562Z,54.21
2023-05-07T21:40:20.932Z,54.39
2023-05-07T21:42:47.663Z,54.55
2023-05-07T21:45:14.130Z,54.45
2023-05-07T21:47:40.556Z,54.15
2023-05-07T21:50:07.001Z,54.48
2023-05-07T21:52:33.360Z,54.46
2023-05-07T21:54:59.815Z,54.38
2023-05-07T21:57:26.228Z,54.70
2023-05-07T21:59:52.600Z,54.47
2023-05-07T22:02:19.034Z,54.33
2023-05-07T22:04:45.541Z,54.72
2023-05-07T22:07:11.935Z,54.50
2023-05-07T22:09:38.330Z,54.62
2023-05-07T22:12:04.772Z,54.69
2023-05-07T22:14:31.311Z,54.86
2023-05-07T22:16:57.736Z,54.34
2023-05-07T22:19:24.297Z,54.63
2023-05-07T22:21:50.731Z,54.38
2023-05-07T22:24:17.228Z,54.71
2023-05-07T22:26:43.644Z,54.80
2023-05-07T22:29:10.035Z,54.87
2023-05-07T22:31:36.494Z,55.13
2023-05-07T22:34:02.865Z,55.31
2023-05-07T22:36:29.262Z,55.62
2023-05-07T22:38:55.748Z,55.24
2023-05-07T22:41:22.112Z,55.34
2023-05-07T22:43:48.540Z,55.24
2023-05-07T22:46:15.048Z,54.99
2023-05-07T22:48:41.429Z,55.27
2023-05-07T22:51:07.820Z,55.20
2023-05-07T22:53:34.264Z,55.20
2023-05-07T22:56:00.882Z,55.04
2023-05-07T22:58:27.259Z,55.31
2023-05-07T23:00:53.680Z,55.51
2023-05-07T23:03:20.156Z,55.72
2023-05-07T23:05:46.464Z,55.58
2023-05-07T23:08:12.907Z,55.68
2023-05-07T23:10:39.313Z,55.67
2023-05-07T23:13:05.796Z,55.75
2023-05-07T23:15:32.087Z,55.66
2023-05-07T23:17:58.521Z,56.24
2023-05-07T23:20:24.929Z,56.26
2023-05-07T23:22:51.345Z,56.21
2023-05-07T23:25:17.714Z,56.21
2023-05-07T23:27:44.100Z,56.49
2023-05-07T23:30:10.685Z,56.52
2023-05-07T23:32:36.932Z,56.44
2023-05-07T23:35:03.330Z,56.49
2023-05-07T23:37:29.727Z,56.16
2023-05-07T23:39:56.064Z,56.67
2023-05-07T23:42:22.512Z,56.61
2023-05-07T23:44:48.897Z,56.53
2023-05-07T23:47:15.265Z,56.25
2023-05-07T23:49:41.696Z,56.13
2023-05-07T23:52:08.076Z,55.72
2023-05-07T23:54:34.433Z,55.89
2023-05-07T23:57:00.954Z,56.29
2023-05-07T23:59:27.319Z,56.30
